Saint Germain, WI

11:06 PM CST on November 22, 2014 (GMT -0600)
Ross Lake | Change Station
CLOSE
Current Station
Personal Weather Station
Location: Woodruff, WI
Elevation: 1640 ft
Nearby Weather Stations
Active Advisory: Special Statement

Elev 1640 ft 45.96 °N, 89.60 °W | Updated 3 minutes ago

Fog
Fog
34.5 °F
Feels Like 31 °F
N
4.0
Wind Variable Wind from NE
Gusts 8.0 mph

Today
High -- | Low -- °F
--% Chance of Precip.
Yesterday
High -- | Low -- °F
Precip. -- in
7:07 AM 4:19 PM
New Moon, 1% visible
Pressure 29.67 in
Visibility 1.8 miles
Clouds Overcast 200 ft
Windchill 31 °F
Dew Point 34 °F
Humidity 99%
Rainfall 0.00 in
Snow Depth Not available.
UV 0 out of 12
Pollen .10 out of 12
Air Quality Not available.
Flu Activity Not available.
METAR KEGV 230450Z AUTO 19003KT 1 3/4SM BR OVC002 01/01 A2967 RMK AO2 P0001 T00100010

More Conditions Fewer Conditions

Pressure 29.67 in
Visibility 1.8 miles
Clouds Overcast 200 ft
Windchill 31 °F
Dew Point 34 °F
Humidity 99%
Rainfall 0.00 in
Snow Depth Not available.
UV 0 out of 12
Pollen .10 out of 12
Air Quality Not available.
Flu Activity Not available.
METAR KEGV 230450Z AUTO 19003KT 1 3/4SM BR OVC002 01/01 A2967 RMK AO2 P0001 T00100010

More Conditions Fewer Conditions

10-Day Weather Forecast

Almanac

Astronomy

Nov. 22, 2014 Rise Set
Actual Time
Civil Twilight
Nautical Twilight
Astronomical Twilight
Moon
Length of Visible Light
Length of Day
Tomorrow will be .
, % of the Moon is Illuminated

Today's Extremes

State Highs State Lows

Community

WunderPhotos

Upload Photos

1,773,003 photos uploaded!

WunderBlogs® & News

Nearby

Air Quality

  Air Quality AQ Index Pollutant
Not available.

Snow Depth

Station Depth Elevation

Earthquake Activity

City Distance Mag. Time & Date
Minimum magnitude displayed is 2.5.

Coastal Water Temperatures

Place Temperature

Nearby Weather Stations